ěÝzenÝ letovÚho provozu ╚eskÚ republiky
Letiste: LKTH Aktualizace: 27.02.2024 12:30:53  UTC
 METAR LKTH 27.02. 12:30 ...
METAR LKTH 271230Z AUTO VRB04KT 9999 BKN024 OVC027 12/07 Q1012=